Terminal Aerodrome Forecast
Issued by NWS Sioux Falls, SD

Home | Current Version | Previous Version | Text Only | Print | Product List | Glossary Off
Versions: 1 2 3 4 5 6 7 8 9 10 11 12 13 14 15 16 17 18 19 20 21

000
FTUS43 KFSD 280523
TAFSUX
TAF
KSUX 280523Z 2806/2906 09005KT P6SM FEW250
     FM280900 00000KT 6SM BR SCT150
     FM281200 00000KT 4SM BR SCT100
     FM281500 09007KT P6SM BKN080
     FM290400 10007KT P6SM OVC030=

USA.gov is the U.S. government's official web portal to all federal, state and local government web resources and services.